Time;durP1;ratioP1;P1;durP2;ratioP2;P2;SDS_P1;SDS_P2;PMS_P1;PMS_P2;Temp;Humidity;BMP_temperature;BMP_pressure;BME280_temperature;BME280_humidity;BME280_pressure;Samples;Min_cycle;Max_cycle;Signal;HPM_P1;HPM_P2
2022/06/07 00:00:09;;;;;;;3.40;2.33;;;22.50;99.90;;;;;;5039296;28;20491;-84
2022/06/07 00:02:35;;;;;;;2.97;2.45;;;22.50;99.90;;;;;;5021544;28;20049;-84
2022/06/07 00:05:03;;;;;;;2.63;2.17;;;22.40;99.90;;;;;;5018100;28;20503;-82
2022/06/07 00:07:29;;;;;;;4.78;2.60;;;22.30;99.90;;;;;;5027675;28;20032;-82
2022/06/07 00:09:55;;;;;;;5.07;2.30;;;22.30;99.90;;;;;;5027424;28;20017;-82
2022/06/07 00:12:26;;;;;;;3.78;2.55;;;22.30;99.90;;;;;;5035568;28;20030;-82
2022/06/07 00:14:53;;;;;;;2.20;2.00;;;22.30;99.90;;;;;;5039705;28;20040;-82
2022/06/07 00:17:19;;;;;;;3.50;2.58;;;22.30;99.90;;;;;;5025455;28;20029;-82
2022/06/07 00:19:45;;;;;;;4.18;2.30;;;22.30;99.90;;;;;;5023039;28;20395;-83
2022/06/07 00:22:13;;;;;;;7.78;2.38;;;22.30;99.90;;;;;;5043219;28;20104;-84
2022/06/07 00:24:39;;;;;;;3.05;2.28;;;22.30;99.90;;;;;;5031726;28;20030;-83
2022/06/07 00:27:06;;;;;;;3.10;1.92;;;22.50;99.90;;;;;;5021690;28;20404;-84
2022/06/07 00:29:33;;;;;;;3.25;2.10;;;22.50;99.90;;;;;;5020921;28;20112;-82
2022/06/07 00:32:00;;;;;;;2.25;2.05;;;22.40;99.90;;;;;;5025948;28;20068;-83
2022/06/07 00:34:26;;;;;;;3.17;2.20;;;22.30;99.90;;;;;;5020126;28;20052;-83
2022/06/07 00:36:51;;;;;;;3.28;2.25;;;22.20;99.90;;;;;;5023569;28;20057;-83
2022/06/07 00:39:17;;;;;;;4.95;2.17;;;22.10;99.90;;;;;;5023369;28;20029;-83
2022/06/07 00:41:43;;;;;;;3.55;2.20;;;22.00;99.90;;;;;;5038265;28;20100;-84
2022/06/07 00:44:25;;;;;;;4.90;2.00;;;22.00;99.90;;;;;;5041245;28;20056;-83
2022/06/07 00:46:56;;;;;;;4.00;1.90;;;22.00;99.90;;;;;;5032345;28;20044;-83
2022/06/07 00:49:25;;;;;;;4.28;2.13;;;21.90;99.90;;;;;;5036988;28;20017;-83
2022/06/07 00:51:51;;;;;;;3.47;2.08;;;21.80;99.90;;;;;;5035335;28;20045;-82
2022/06/07 00:54:27;;;;;;;2.40;2.20;;;21.70;99.90;;;;;;5035381;28;20395;-82
2022/06/07 00:56:54;;;;;;;2.40;2.20;;;21.60;99.90;;;;;;5029175;28;20056;-82
2022/06/07 00:59:19;;;;;;;4.85;2.03;;;21.50;99.90;;;;;;5021052;28;20017;-82
2022/06/07 01:01:45;;;;;;;3.30;1.83;;;21.40;99.90;;;;;;5036442;28;20525;-81
2022/06/07 01:04:11;;;;;;;4.07;2.20;;;21.40;99.90;;;;;;5040705;28;20021;-81
2022/06/07 01:12:06;;;;;;;2.63;1.90;;;21.60;99.90;;;;;;5033770;28;20080;-82
2022/06/07 01:14:31;;;;;;;2.22;1.73;;;21.70;99.90;;;;;;5041328;28;20086;-83
2022/06/07 01:16:58;;;;;;;2.72;1.83;;;21.70;99.90;;;;;;5038965;28;20051;-83
2022/06/07 01:19:26;;;;;;;2.20;2.00;;;21.70;99.90;;;;;;5024391;28;20033;-83
2022/06/07 01:21:52;;;;;;;1.75;1.65;;;21.70;99.90;;;;;;5015812;28;20032;-82
2022/06/07 01:24:18;;;;;;;6.45;2.28;;;21.80;99.90;;;;;;5026694;28;20028;-84
2022/06/07 01:26:56;;;;;;;1.98;1.77;;;21.80;99.90;;;;;;5040225;28;20857;-84
2022/06/07 01:29:22;;;;;;;3.03;1.92;;;21.90;99.90;;;;;;5041791;28;20017;-83
2022/06/07 01:31:48;;;;;;;1.95;1.60;;;21.90;99.90;;;;;;5036683;28;20092;-83
2022/06/07 01:34:15;;;;;;;3.33;1.80;;;21.90;99.90;;;;;;5033956;28;20029;-83
2022/06/07 01:36:41;;;;;;;2.22;1.75;;;21.90;99.90;;;;;;5025477;28;20036;-83
2022/06/07 01:41:54;;;;;;;2.13;1.73;;;22.00;99.90;;;;;;5032583;28;20507;-83
2022/06/07 01:44:28;;;;;;;2.95;2.00;;;21.90;99.90;;;;;;5035306;28;20053;-83
2022/06/07 01:46:59;;;;;;;2.42;1.70;;;21.90;99.90;;;;;;5035716;28;20056;-83
2022/06/07 01:49:28;;;;;;;2.78;2.00;;;22.00;99.90;;;;;;5037917;28;20087;-82
2022/06/07 01:51:55;;;;;;;5.25;2.33;;;22.00;99.90;;;;;;5042412;28;20149;-83
2022/06/07 01:54:22;;;;;;;3.45;1.90;;;22.10;99.90;;;;;;5040730;28;20040;-83
2022/06/07 01:56:49;;;;;;;3.88;1.90;;;22.10;99.90;;;;;;5041561;28;20113;-82
2022/06/07 01:59:24;;;;;;;2.47;2.28;;;22.10;99.90;;;;;;5039399;28;20017;-83
2022/06/07 02:01:51;;;;;;;4.30;2.33;;;22.10;99.90;;;;;;5038199;28;20564;-83
2022/06/07 02:04:21;;;;;;;3.65;1.90;;;22.10;99.90;;;;;;5021909;28;20480;-84
2022/06/07 02:06:50;;;;;;;3.15;2.35;;;22.10;99.90;;;;;;5036939;28;20409;-83
2022/06/07 02:09:26;;;;;;;2.50;2.30;;;22.10;99.90;;;;;;5025868;28;20022;-85
2022/06/07 02:11:52;;;;;;;4.20;2.13;;;22.10;99.90;;;;;;5034149;28;20033;-85
2022/06/07 02:14:17;;;;;;;4.60;2.28;;;22.10;99.90;;;;;;5025365;28;20025;-84
2022/06/07 02:16:43;;;;;;;3.60;2.72;;;22.10;99.90;;;;;;5036577;28;20025;-84
2022/06/07 02:19:09;;;;;;;5.03;2.17;;;22.00;99.90;;;;;;5039756;28;20048;-83
2022/06/07 02:21:37;;;;;;;4.45;2.60;;;22.00;99.90;;;;;;5045282;28;20045;-83
2022/06/07 02:24:04;;;;;;;3.67;2.20;;;22.10;99.90;;;;;;5019478;28;20044;-82
2022/06/07 02:26:39;;;;;;;2.47;2.28;;;22.10;99.90;;;;;;5044721;28;20480;-83
2022/06/07 02:29:13;;;;;;;3.08;2.30;;;22.10;99.90;;;;;;5039564;28;20155;-83
2022/06/07 02:31:44;;;;;;;3.42;2.17;;;22.10;99.90;;;;;;5016179;28;20048;-84
2022/06/07 02:34:10;;;;;;;2.70;2.50;;;22.00;99.90;;;;;;5045967;28;20100;-84
2022/06/07 02:36:37;;;;;;;3.33;2.40;;;22.00;99.90;;;;;;5026522;28;20471;-84
2022/06/07 02:39:04;;;;;;;4.53;2.47;;;22.00;99.90;;;;;;5031090;28;20056;-83
2022/06/07 02:41:31;;;;;;;2.58;2.33;;;22.00;99.90;;;;;;5029759;28;20017;-83
2022/06/07 02:43:57;;;;;;;3.05;2.45;;;22.00;99.90;;;;;;5021111;28;20021;-84
2022/06/07 02:46:23;;;;;;;5.05;2.53;;;22.00;99.90;;;;;;5021549;28;20083;-83
2022/06/07 02:48:50;;;;;;;2.55;2.35;;;21.90;99.90;;;;;;5042566;28;20037;-82
2022/06/07 02:51:16;;;;;;;2.88;2.55;;;21.80;99.90;;;;;;5043476;28;20691;-84
2022/06/07 02:53:42;;;;;;;3.40;2.00;;;21.80;99.90;;;;;;5042050;28;20049;-84
2022/06/07 02:56:07;;;;;;;2.50;2.30;;;21.80;99.90;;;;;;5034730;28;20488;-84
2022/06/07 02:58:33;;;;;;;2.45;2.03;;;21.80;99.90;;;;;;5026925;28;20452;-84
2022/06/07 03:00:59;;;;;;;5.70;2.28;;;21.80;99.90;;;;;;5021516;28;20116;-84
2022/06/07 03:03:26;;;;;;;3.63;2.45;;;21.80;99.90;;;;;;5040247;28;20025;-83
2022/06/07 03:05:52;;;;;;;5.25;2.53;;;21.90;99.90;;;;;;5045084;28;20022;-84
2022/06/07 03:08:19;;;;;;;2.13;1.92;;;21.90;99.90;;;;;;5023885;28;20030;-84
2022/06/07 03:10:48;;;;;;;3.53;2.40;;;21.80;99.90;;;;;;5042482;28;20025;-84
2022/06/07 03:13:16;;;;;;;3.15;2.22;;;21.90;99.90;;;;;;5045604;28;20434;-83
2022/06/07 03:15:42;;;;;;;3.42;2.20;;;21.80;99.90;;;;;;5025350;28;20028;-83
2022/06/07 03:18:09;;;;;;;5.80;2.53;;;21.80;99.90;;;;;;5039186;28;20031;-83
2022/06/07 03:20:36;;;;;;;2.75;2.10;;;21.90;99.90;;;;;;5037376;28;20021;-83
2022/06/07 03:23:03;;;;;;;5.18;2.20;;;21.90;99.90;;;;;;5041497;28;20388;-83
2022/06/07 03:25:29;;;;;;;2.45;2.20;;;21.90;99.90;;;;;;5025011;28;20033;-82
2022/06/07 03:27:55;;;;;;;2.30;2.10;;;21.90;99.90;;;;;;5034635;28;20173;-83
2022/06/07 03:30:21;;;;;;;5.63;2.40;;;21.90;99.90;;;;;;5039692;28;20108;-83
2022/06/07 03:32:47;;;;;;;3.35;2.20;;;21.90;99.90;;;;;;5025580;28;20119;-83
2022/06/07 03:35:15;;;;;;;2.63;1.80;;;21.90;99.90;;;;;;5036300;28;20030;-83
2022/06/07 03:37:41;;;;;;;2.70;2.03;;;21.90;99.90;;;;;;5039881;28;20029;-83
2022/06/07 03:40:10;;;;;;;2.05;1.70;;;21.90;99.90;;;;;;5019902;28;20025;-83
2022/06/07 03:42:36;;;;;;;2.33;2.10;;;21.90;99.90;;;;;;5042709;28;20470;-85
2022/06/07 03:45:03;;;;;;;2.47;2.22;;;22.00;99.90;;;;;;5023224;28;20040;-84
2022/06/07 03:47:29;;;;;;;2.38;2.17;;;22.10;99.90;;;;;;5038779;28;20196;-85
2022/06/07 03:49:54;;;;;;;2.55;2.30;;;22.10;99.90;;;;;;5021338;28;20017;-84
2022/06/07 03:52:20;;;;;;;2.50;2.30;;;22.00;99.90;;;;;;5023918;28;20148;-84
2022/06/07 03:54:48;;;;;;;2.97;2.03;;;22.10;99.90;;;;;;5021895;28;20029;-83
2022/06/07 03:57:14;;;;;;;3.13;2.10;;;22.10;99.90;;;;;;5037400;28;20029;-83
2022/06/07 03:59:39;;;;;;;2.90;2.00;;;22.10;99.90;;;;;;5043756;28;20024;-85
2022/06/07 04:02:06;;;;;;;2.85;2.08;;;22.10;99.90;;;;;;5040707;28;20499;-84
2022/06/07 04:04:34;;;;;;;2.10;1.90;;;22.10;99.90;;;;;;5023705;28;20128;-84
2022/06/07 04:09:45;;;;;;;4.88;1.90;;;22.20;99.90;;;;;;5037226;28;20099;-85
2022/06/07 04:12:16;;;;;;;4.22;2.25;;;22.20;99.90;;;;;;5021266;28;20465;-84
2022/06/07 04:14:44;;;;;;;3.15;2.22;;;22.20;99.90;;;;;;5037346;28;20510;-85
2022/06/07 04:17:11;;;;;;;3.67;1.83;;;22.20;99.90;;;;;;5021172;28;20424;-84
2022/06/07 04:19:39;;;;;;;2.28;2.08;;;22.20;99.90;;;;;;5041694;28;20024;-85
2022/06/07 04:22:05;;;;;;;1.90;1.60;;;22.20;99.90;;;;;;5041406;28;20025;-84
2022/06/07 04:24:32;;;;;;;3.35;1.70;;;22.30;99.90;;;;;;5021072;28;20075;-85
2022/06/07 04:26:58;;;;;;;6.43;1.98;;;22.40;99.90;;;;;;5039075;28;20380;-84
2022/06/07 04:29:25;;;;;;;2.97;1.77;;;22.50;99.90;;;;;;5039635;28;20465;-84
2022/06/07 04:31:51;;;;;;;1.75;1.65;;;22.60;99.90;;;;;;5022023;28;20033;-84
2022/06/07 04:34:18;;;;;;;2.35;1.70;;;22.70;99.90;;;;;;5044587;28;20468;-84
2022/06/07 04:36:44;;;;;;;3.53;2.08;;;22.70;99.90;;;;;;5037389;28;20017;-84
2022/06/07 04:39:11;;;;;;;2.00;1.80;;;22.80;99.90;;;;;;5023025;28;20522;-84
2022/06/07 04:41:37;;;;;;;2.13;1.75;;;23.00;99.90;;;;;;5020143;28;20036;-83
2022/06/07 04:44:03;;;;;;;2.20;1.98;;;23.00;99.90;;;;;;5039936;28;20025;-84
2022/06/07 04:46:35;;;;;;;1.70;1.60;;;23.10;99.90;;;;;;5041762;28;20040;-83
2022/06/07 04:49:04;;;;;;;2.72;1.77;;;23.10;99.90;;;;;;5021694;28;20025;-83
2022/06/07 04:51:35;;;;;;;2.72;1.85;;;23.10;99.90;;;;;;5024133;28;20506;-83
2022/06/07 04:54:02;;;;;;;3.80;1.80;;;23.10;99.90;;;;;;5002663;28;20489;-83
2022/06/07 04:56:31;;;;;;;2.60;1.92;;;23.20;99.90;;;;;;4996779;28;20130;-82
2022/06/07 04:58:59;;;;;;;2.83;1.90;;;23.20;99.90;;;;;;5014543;28;20032;-84
2022/06/07 05:01:38;;;;;;;3.40;1.70;;;23.20;99.90;;;;;;4998005;28;20050;-83
2022/06/07 05:04:08;;;;;;;1.55;1.45;;;23.30;99.90;;;;;;4998571;28;20108;-83
2022/06/07 05:06:46;;;;;;;3.55;2.00;;;23.30;99.90;;;;;;5016969;28;20037;-84
2022/06/07 05:09:22;;;;;;;4.15;1.95;;;23.40;99.90;;;;;;5003576;28;20068;-83
2022/06/07 05:11:52;;;;;;;4.05;1.88;;;23.40;99.90;;;;;;4995933;28;20030;-83
2022/06/07 05:14:23;;;;;;;2.40;1.90;;;23.50;99.90;;;;;;4997689;28;20044;-84
2022/06/07 05:16:57;;;;;;;4.40;2.25;;;23.50;99.90;;;;;;4989425;28;20034;-83
2022/06/07 05:19:33;;;;;;;3.83;1.98;;;23.60;99.90;;;;;;5002100;28;20025;-84
2022/06/07 05:22:05;;;;;;;2.47;1.63;;;23.70;99.90;;;;;;4993429;28;20030;-82
2022/06/07 05:24:31;;;;;;;5.70;1.85;;;23.90;99.90;;;;;;5002358;28;20030;-83
2022/06/07 05:27:00;;;;;;;1.77;1.67;;;24.00;99.90;;;;;;5001368;28;20057;-82
2022/06/07 05:29:41;;;;;;;2.80;2.00;;;24.10;99.90;;;;;;5001009;28;20015;-83
2022/06/07 05:32:07;;;;;;;3.50;1.67;;;24.30;99.90;;;;;;4989155;28;20022;-82
2022/06/07 05:34:33;;;;;;;5.90;2.30;;;24.30;99.90;;;;;;5000617;28;20543;-84
2022/06/07 05:36:58;;;;;;;3.72;1.52;;;24.40;99.90;;;;;;5004157;28;20049;-83
2022/06/07 05:39:27;;;;;;;2.13;1.90;;;24.40;99.90;;;;;;5001136;28;20503;-85
2022/06/07 05:41:57;;;;;;;7.43;2.47;;;24.40;99.90;;;;;;4999708;28;20053;-83
2022/06/07 05:44:25;;;;;;;4.15;1.90;;;24.50;99.90;;;;;;4996004;28;20065;-83
2022/06/07 05:46:52;;;;;;;3.63;1.90;;;24.50;99.90;;;;;;4995687;28;20030;-83
2022/06/07 05:49:18;;;;;;;6.95;2.03;;;24.50;99.90;;;;;;5000361;28;20076;-83
2022/06/07 05:51:45;;;;;;;2.28;2.00;;;24.50;99.90;;;;;;5001371;28;20422;-82
2022/06/07 05:54:12;;;;;;;5.85;1.95;;;24.50;99.90;;;;;;5020518;28;20192;-82
2022/06/07 05:56:39;;;;;;;8.02;2.10;;;24.50;99.90;;;;;;5037752;28;20029;-83
2022/06/07 05:59:05;;;;;;;3.53;1.85;;;24.40;99.90;;;;;;5034604;28;20109;-84
2022/06/07 06:01:41;;;;;;;4.18;2.00;;;24.40;99.90;;;;;;5021517;28;20027;-83
2022/06/07 06:04:10;;;;;;;3.25;1.80;;;24.30;99.90;;;;;;5036937;28;20052;-86
2022/06/07 06:06:39;;;;;;;9.57;2.30;;;24.30;99.90;;;;;;5042348;28;20035;-86
2022/06/07 06:11:51;;;;;;;5.72;2.25;;;24.50;99.90;;;;;;5039855;28;20391;-83
2022/06/07 06:14:19;;;;;;;3.83;2.55;;;24.60;99.90;;;;;;5036678;28;20021;-84
2022/06/07 06:16:44;;;;;;;4.63;2.15;;;24.80;99.90;;;;;;5038480;28;20009;-81
2022/06/07 06:19:10;;;;;;;3.92;2.30;;;25.00;99.90;;;;;;5034125;28;20033;-82
2022/06/07 06:21:43;;;;;;;2.42;2.08;;;25.20;99.90;;;;;;5037945;28;20507;-83
2022/06/07 06:24:20;;;;;;;2.80;1.67;;;25.50;99.90;;;;;;5037678;28;20025;-81
2022/06/07 06:26:46;;;;;;;13.00;2.63;;;25.70;99.90;;;;;;5039213;28;20033;-82
2022/06/07 06:29:12;;;;;;;16.48;2.10;;;25.90;99.90;;;;;;5034999;28;20100;-84
2022/06/07 06:31:39;;;;;;;5.40;2.50;;;26.00;99.90;;;;;;5017062;28;20022;-88
2022/06/07 06:34:06;;;;;;;6.43;2.58;;;26.20;99.90;;;;;;5037217;28;20056;-83
2022/06/07 06:36:32;;;;;;;3.90;1.38;;;26.30;99.90;;;;;;5032397;28;20479;-82
2022/06/07 06:38:58;;;;;;;2.97;1.67;;;26.40;99.90;;;;;;5011251;28;20523;-82
2022/06/07 06:41:27;;;;;;;1.60;1.50;;;26.40;99.90;;;;;;5018473;28;20097;-81
2022/06/07 06:43:58;;;;;;;5.68;1.98;;;26.40;99.90;;;;;;5029650;28;20692;-79
2022/06/07 06:46:31;;;;;;;2.58;1.73;;;26.40;99.90;;;;;;5032568;28;20030;-79
2022/06/07 06:48:57;;;;;;;2.33;2.10;;;26.30;99.90;;;;;;5027574;28;20033;-79
2022/06/07 06:51:28;;;;;;;3.40;1.88;;;26.20;99.90;;;;;;5035345;28;20400;-80
2022/06/07 06:54:12;;;;;;;1.77;1.67;;;26.20;99.90;;;;;;5028394;28;20073;-80
2022/06/07 06:56:38;;;;;;;5.70;1.90;;;26.30;99.90;;;;;;5032246;28;20140;-81
2022/06/07 06:59:08;;;;;;;5.95;1.95;;;26.30;99.90;;;;;;5012149;28;20475;-80
2022/06/07 07:01:39;;;;;;;2.25;1.40;;;26.30;99.90;;;;;;5035653;28;20582;-80
2022/06/07 07:04:17;;;;;;;4.47;1.52;;;26.40;99.90;;;;;;5012637;28;20479;-80
2022/06/07 07:06:45;;;;;;;3.53;1.83;;;26.40;99.90;;;;;;5033277;28;20476;-81
2022/06/07 07:09:12;;;;;;;1.83;1.55;;;26.40;99.90;;;;;;5027563;28;20033;-80
2022/06/07 07:11:50;;;;;;;2.75;1.60;;;26.50;99.90;;;;;;5035614;28;20452;-82
2022/06/07 07:14:16;;;;;;;2.75;1.50;;;26.50;99.90;;;;;;5019050;28;20037;-80
2022/06/07 07:16:52;;;;;;;1.98;1.80;;;26.60;99.90;;;;;;5037859;28;20032;-80
2022/06/07 07:19:18;;;;;;;2.83;1.60;;;26.70;99.90;;;;;;5033599;28;20028;-82
2022/06/07 07:21:48;;;;;;;2.40;1.77;;;26.80;99.90;;;;;;5037061;28;20391;-80
2022/06/07 07:24:18;;;;;;;2.45;1.30;;;27.00;99.90;;;;;;5032548;28;20714;-80
2022/06/07 07:26:45;;;;;;;4.80;1.50;;;27.00;99.90;;;;;;5033807;28;20790;-80
2022/06/07 07:29:14;;;;;;;2.95;1.52;;;27.00;99.90;;;;;;5032478;28;20029;-81
2022/06/07 07:31:41;;;;;;;4.38;1.52;;;27.00;99.90;;;;;;5038768;28;20043;-81
2022/06/07 07:34:09;;;;;;;3.03;1.65;;;27.00;99.90;;;;;;5031040;28;20021;-80
2022/06/07 07:36:37;;;;;;;3.53;1.48;;;27.10;99.90;;;;;;5038874;28;20025;-80
2022/06/07 07:39:04;;;;;;;6.88;1.70;;;27.30;99.90;;;;;;5027700;28;20029;-80
2022/06/07 07:41:36;;;;;;;1.65;1.20;;;27.50;99.90;;;;;;5034603;28;20025;-81
2022/06/07 07:44:04;;;;;;;1.58;1.48;;;27.60;99.90;;;;;;5027908;28;20025;-81
2022/06/07 07:46:33;;;;;;;3.67;1.88;;;27.70;99.90;;;;;;5018204;28;20033;-81
2022/06/07 07:48:59;;;;;;;3.42;1.75;;;27.80;99.90;;;;;;5034625;28;20029;-81
2022/06/07 07:51:30;;;;;;;5.65;1.77;;;27.80;99.90;;;;;;5015728;28;20179;-81
2022/06/07 07:53:58;;;;;;;5.22;1.92;;;28.00;99.90;;;;;;5017766;28;20045;-80
2022/06/07 07:56:25;;;;;;;3.30;1.67;;;28.10;99.90;;;;;;5030113;28;20025;-82
2022/06/07 07:58:52;;;;;;;2.47;1.40;;;28.10;99.90;;;;;;5026423;28;20075;-83
2022/06/07 08:01:21;;;;;;;3.78;1.60;;;28.00;99.90;;;;;;5033154;28;20168;-81
2022/06/07 08:03:48;;;;;;;1.33;1.23;;;28.20;99.90;;;;;;5032257;28;20116;-82
2022/06/07 08:06:17;;;;;;;4.43;1.48;;;28.20;99.90;;;;;;5032892;28;20029;-83
2022/06/07 08:08:44;;;;;;;4.63;1.60;;;28.30;99.90;;;;;;5031431;28;20025;-82
2022/06/07 08:11:10;;;;;;;4.68;2.13;;;28.20;99.90;;;;;;5031687;28;20033;-86
2022/06/07 08:13:36;;;;;;;9.75;4.55;;;28.00;99.90;;;;;;5015188;28;20064;-81
2022/06/07 08:16:04;;;;;;;10.20;2.00;;;27.70;99.90;;;;;;5030910;28;20030;-82
2022/06/07 08:18:30;;;;;;;10.43;2.42;;;27.40;99.90;;;;;;5011551;28;20029;-82
2022/06/07 08:21:01;;;;;;;7.90;2.35;;;27.30;99.90;;;;;;5013177;28;20028;-82
2022/06/07 08:23:28;;;;;;;3.88;1.90;;;27.10;99.90;;;;;;5029696;28;20417;-80
2022/06/07 08:25:58;;;;;;;7.63;2.25;;;26.90;99.90;;;;;;5013879;28;20021;-83
2022/06/07 08:28:36;;;;;;;15.75;2.60;;;26.70;99.90;;;;;;5031633;28;20388;-80
2022/06/07 08:31:02;;;;;;;10.07;2.65;;;26.60;99.90;;;;;;5031030;28;20029;-81
2022/06/07 08:39:05;;;;;;;8.20;2.60;;;27.20;99.90;;;;;;5029727;28;20035;-80
2022/06/07 08:41:36;;;;;;;9.15;1.83;;;27.40;99.90;;;;;;5029576;28;20052;-79
2022/06/07 08:44:06;;;;;;;3.33;1.70;;;27.50;99.90;;;;;;5032598;28;20973;-79
2022/06/07 08:46:36;;;;;;;7.65;2.08;;;27.60;99.90;;;;;;5032839;28;20029;-79
2022/06/07 08:49:02;;;;;;;4.57;1.60;;;27.60;99.90;;;;;;5033665;28;20442;-78
2022/06/07 08:51:44;;;;;;;3.25;1.92;;;27.60;99.90;;;;;;5033414;28;20044;-79
2022/06/07 08:54:20;;;;;;;4.80;1.95;;;27.60;99.90;;;;;;5028297;28;20459;-79
2022/06/07 08:56:46;;;;;;;2.28;1.48;;;27.60;99.90;;;;;;5014509;28;20166;-79
2022/06/07 08:59:15;;;;;;;7.95;2.13;;;27.80;99.90;;;;;;5030527;28;20047;-80
2022/06/07 09:01:47;;;;;;;2.45;1.55;;;27.90;99.90;;;;;;5030264;28;20026;-79
2022/06/07 09:04:25;;;;;;;4.28;1.73;;;27.70;99.90;;;;;;5011542;28;20052;-80
2022/06/07 09:06:57;;;;;;;4.32;1.90;;;27.60;99.90;;;;;;5028197;28;20033;-80
2022/06/07 09:12:20;;;;;;;3.60;1.75;;;27.30;99.90;;;;;;5037842;28;20085;-82
2022/06/07 09:15:00;;;;;;;5.55;2.03;;;27.30;99.90;;;;;;5017628;28;20029;-80
2022/06/07 09:17:34;;;;;;;4.65;1.80;;;27.40;99.90;;;;;;5018975;28;20049;-82
2022/06/07 09:20:02;;;;;;;3.58;1.65;;;27.30;99.90;;;;;;5037086;28;20017;-80
2022/06/07 09:22:47;;;;;;;2.05;1.60;;;27.20;99.90;;;;;;5038241;28;20048;-83
2022/06/07 09:25:52;;;;;;;3.72;1.88;;;27.20;99.90;;;;;;5033588;28;20048;-83
2022/06/07 09:28:29;;;;;;;6.30;1.88;;;27.50;99.90;;;;;;5035774;28;20091;-82
2022/06/07 09:31:00;;;;;;;4.85;1.85;;;27.90;99.90;;;;;;5044451;28;20021;-80
2022/06/07 09:33:30;;;;;;;6.00;1.98;;;28.20;99.90;;;;;;5044515;28;20031;-81
2022/06/07 09:36:07;;;;;;;3.17;1.70;;;28.20;99.90;;;;;;5046449;28;20068;-85
2022/06/07 09:38:38;;;;;;;2.80;1.70;;;27.90;99.90;;;;;;5026626;28;20033;-80
2022/06/07 09:44:21;;;;;;;2.85;1.80;;;28.30;99.90;;;;;;5041277;28;20032;-80
2022/06/07 09:46:51;;;;;;;3.92;1.85;;;28.30;99.90;;;;;;5038918;28;20033;-80
2022/06/07 09:49:33;;;;;;;3.75;1.90;;;28.30;99.90;;;;;;5039962;28;20021;-80
2022/06/07 09:52:20;;;;;;;6.07;1.67;;;28.40;99.90;;;;;;5019840;28;20041;-83
2022/06/07 09:54:49;;;;;;;4.93;1.90;;;28.40;99.90;;;;;;5041469;28;20053;-82
2022/06/07 09:57:21;;;;;;;10.18;2.60;;;28.20;99.90;;;;;;5036196;28;20112;-83
2022/06/07 10:00:18;;;;;;;3.22;2.67;;;28.10;99.90;;;;;;5037866;28;20114;-82
2022/06/07 10:03:14;;;;;;;7.68;2.38;;;27.40;99.90;;;;;;5047988;28;20020;-84
2022/06/07 10:05:47;;;;;;;4.88;2.67;;;26.70;99.90;;;;;;5024301;28;20028;-82
2022/06/07 10:08:21;;;;;;;;;;;26.40;99.90;;;;;;5046278;28;20033;-80
2022/06/07 10:10:56;;;;;;;3.63;2.85;;;26.60;99.90;;;;;;5042212;28;19905;-83
2022/06/07 10:13:51;;;;;;;3.30;2.10;;;26.60;99.90;;;;;;5027839;28;20087;-81
2022/06/07 10:16:25;;;;;;;3.55;2.13;;;26.70;99.90;;;;;;5012375;28;20124;-82
2022/06/07 10:18:59;;;;;;;4.07;1.92;;;26.90;99.90;;;;;;5034288;28;20028;-82
2022/06/07 10:21:33;;;;;;;2.47;1.80;;;27.10;99.90;;;;;;5043808;28;20479;-82
2022/06/07 10:24:08;;;;;;;3.05;2.00;;;27.00;99.90;;;;;;5045164;28;20029;-82
2022/06/07 10:26:34;;;;;;;3.10;2.05;;;26.90;99.90;;;;;;5041140;28;20044;-82
2022/06/07 10:29:20;;;;;;;3.33;1.80;;;27.10;99.90;;;;;;5041819;28;20021;-82
2022/06/07 10:31:59;;;;;;;2.92;2.08;;;27.60;99.90;;;;;;5039022;28;20032;-82
2022/06/07 10:34:31;;;;;;;2.38;2.00;;;27.50;99.90;;;;;;5025210;28;20112;-82
2022/06/07 10:37:18;;;;;;;4.15;2.08;;;27.20;99.90;;;;;;5047074;28;20033;-81
2022/06/07 10:39:57;;;;;;;2.35;1.60;;;26.90;99.90;;;;;;5037646;28;20482;-82
2022/06/07 10:42:51;;;;;;;9.38;1.80;;;26.80;99.90;;;;;;5014729;28;20515;-82
2022/06/07 10:45:22;;;;;;;3.95;2.03;;;26.70;99.90;;;;;;5043532;28;20028;-83
2022/06/07 10:48:18;;;;;;;6.40;1.98;;;26.80;99.90;;;;;;5029800;28;20026;-82
2022/06/07 10:51:07;;;;;;;4.70;1.45;;;26.80;99.90;;;;;;5019982;28;20036;-82
2022/06/07 10:53:45;;;;;;;3.15;1.70;;;26.80;99.90;;;;;;5040540;28;20111;-81
2022/06/07 10:56:24;;;;;;;2.00;1.80;;;26.70;99.90;;;;;;5039049;28;20716;-83
2022/06/07 10:58:53;;;;;;;3.97;1.70;;;26.90;99.90;;;;;;5023904;28;20033;-83
2022/06/07 11:01:38;;;;;;;5.13;2.22;;;26.80;99.90;;;;;;5020479;28;20022;-82
2022/06/07 11:10:23;;;;;;;2.55;1.60;;;26.70;99.90;;;;;;5037687;28;20037;-82
2022/06/07 11:13:27;;;;;;;5.30;1.80;;;26.90;99.90;;;;;;5042767;28;20365;-82
2022/06/07 11:16:08;;;;;;;6.30;1.80;;;26.90;99.90;;;;;;5041980;28;20048;-82
2022/06/07 11:18:34;;;;;;;2.88;2.13;;;26.80;99.90;;;;;;5039736;28;20040;-82
2022/06/07 11:21:03;;;;;;;3.92;2.40;;;26.40;99.90;;;;;;5026120;28;20017;-82
2022/06/07 11:23:32;;;;;;;2.30;2.08;;;26.40;99.90;;;;;;5044559;28;20072;-82
2022/06/07 11:26:08;;;;;;;4.35;1.98;;;26.60;99.90;;;;;;5024839;28;20084;-82
2022/06/07 11:28:42;;;;;;;4.70;2.05;;;26.80;99.90;;;;;;5042301;28;20113;-82
2022/06/07 11:31:23;;;;;;;2.90;2.17;;;27.10;99.90;;;;;;5032026;28;20108;-81
2022/06/07 11:33:52;;;;;;;3.75;2.05;;;27.60;99.90;;;;;;5027512;28;20052;-83
2022/06/07 11:36:20;;;;;;;9.55;1.88;;;27.90;99.90;;;;;;5023884;28;20116;-81
2022/06/07 11:38:55;;;;;;;3.10;2.08;;;28.10;99.90;;;;;;5043198;28;20060;-82
2022/06/07 11:41:40;;;;;;;3.47;1.98;;;28.50;99.90;;;;;;5020884;28;20033;-82
2022/06/07 11:44:11;;;;;;;2.83;2.03;;;28.70;99.90;;;;;;5012721;28;20035;-82
2022/06/07 11:47:00;;;;;;;2.43;1.87;;;28.60;99.90;;;;;;5024952;28;20017;-82
2022/06/07 11:49:27;;;;;;;2.72;1.85;;;28.40;99.90;;;;;;5040825;28;20276;-82
2022/06/07 11:52:14;;;;;;;2.30;1.75;;;28.10;99.90;;;;;;5036661;28;20095;-82
2022/06/07 11:54:47;;;;;;;8.88;1.83;;;28.40;99.90;;;;;;5026326;28;20025;-82
2022/06/07 11:57:35;;;;;;;2.10;1.80;;;28.50;99.90;;;;;;5030103;28;20038;-82
2022/06/07 12:00:01;;;;;;;5.00;2.00;;;28.80;99.90;;;;;;5020956;28;20100;-82
2022/06/07 12:02:37;;;;;;;4.68;1.73;;;29.30;99.90;;;;;;5037414;28;20116;-82
2022/06/07 12:05:28;;;;;;;3.35;1.48;;;30.90;99.90;;;;;;5043166;28;20066;-83
2022/06/07 12:08:00;;;;;;;2.95;1.58;;;33.80;99.90;;;;;;4999546;28;20048;-82
2022/06/07 12:10:32;;;;;;;2.58;2.00;;;34.90;99.90;;;;;;5040181;28;20096;-82
2022/06/07 12:13:49;;;;;;;2.55;1.60;;;34.80;98.70;;;;;;5099618;27;20401;-81
2022/06/07 12:16:34;;;;;;;4.65;1.85;;;35.80;97.30;;;;;;5100391;28;20111;-81
2022/06/07 12:19:03;;;;;;;2.67;1.80;;;35.80;97.10;;;;;;5087994;28;20039;-81
2022/06/07 12:21:34;;;;;;;4.55;1.90;;;36.50;95.10;;;;;;5094909;28;20020;-81
2022/06/07 12:24:15;;;;;;;4.20;1.73;;;36.40;95.60;;;;;;5099199;28;20468;-81
2022/06/07 12:26:45;;;;;;;2.03;1.60;;;36.60;93.10;;;;;;5093082;28;20028;-80
2022/06/07 12:29:19;;;;;;;5.72;1.95;;;36.80;92.60;;;;;;5098142;28;20026;-82
2022/06/07 12:32:00;;;;;;;1.90;1.35;;;37.00;91.70;;;;;;5097592;28;20058;-80
2022/06/07 12:34:26;;;;;;;6.80;1.30;;;37.70;90.20;;;;;;5099408;28;20122;-82
2022/06/07 12:37:08;;;;;;;2.85;1.30;;;38.60;89.50;;;;;;5092560;28;20119;-81
2022/06/07 12:39:45;;;;;;;5.18;1.40;;;39.30;85.20;;;;;;5097870;28;20374;-81
2022/06/07 12:42:16;;;;;;;3.25;1.40;;;39.30;83.90;;;;;;5092608;28;20027;-83
2022/06/07 12:44:52;;;;;;;3.38;1.75;;;39.30;81.90;;;;;;5091721;28;20016;-83
2022/06/07 12:47:35;;;;;;;5.95;1.73;;;38.50;82.90;;;;;;5095621;28;20032;-83
2022/06/07 12:50:03;;;;;;;1.50;1.40;;;37.80;83.30;;;;;;5095863;28;20509;-81
2022/06/07 12:52:32;;;;;;;2.95;1.20;;;37.60;84.30;;;;;;5094229;28;20600;-81
2022/06/07 12:55:11;;;;;;;3.28;1.30;;;39.90;81.70;;;;;;5094457;28;20021;-81
2022/06/07 12:58:02;;;;;;;6.22;1.35;;;41.60;78.70;;;;;;5098923;28;20069;-81
2022/06/07 13:00:41;;;;;;;3.38;1.45;;;42.40;73.80;;;;;;5093092;28;20024;-81
2022/06/07 13:03:20;;;;;;;5.50;1.60;;;41.70;72.60;;;;;;5088444;28;20050;-82
2022/06/07 13:06:00;;;;;;;1.20;1.10;;;42.80;67.90;;;;;;5093273;28;20016;-83
2022/06/07 13:08:34;;;;;;;4.30;1.40;;;40.70;67.60;;;;;;5094446;28;20583;-80
2022/06/07 13:11:00;;;;;;;3.63;1.50;;;38.30;73.90;;;;;;5095124;28;20041;-81
2022/06/07 13:13:31;;;;;;;2.75;1.45;;;39.30;71.40;;;;;;5099578;28;20027;-82
2022/06/07 13:16:21;;;;;;;4.35;1.38;;;39.80;70.40;;;;;;5099252;28;20024;-81
2022/06/07 13:19:24;;;;;;;3.35;1.30;;;41.10;70.20;;;;;;5099526;28;20106;-80
2022/06/07 13:22:09;;;;;;;2.90;1.33;;;40.10;69.50;;;;;;5097422;28;20041;-83
2022/06/07 13:24:40;;;;;;;2.75;1.35;;;39.10;70.90;;;;;;5079962;28;20086;-81
2022/06/07 13:27:51;;;;;;;8.30;1.30;;;39.50;70.70;;;;;;5074843;28;20115;-83
2022/06/07 13:30:27;;;;;;;2.78;1.58;;;40.40;70.00;;;;;;5075184;28;20059;-82
2022/06/07 13:33:10;;;;;;;3.83;1.35;;;38.10;74.30;;;;;;5083003;28;20044;-82
2022/06/07 13:35:50;;;;;;;7.70;1.70;;;37.10;76.40;;;;;;5073498;28;20020;-81
2022/06/07 13:38:21;;;;;;;4.22;1.50;;;37.00;77.00;;;;;;5073106;28;20051;-82
2022/06/07 13:40:58;;;;;;;3.97;1.48;;;36.60;79.50;;;;;;5081479;28;20028;-82